Time;durP1;ratioP1;P1;durP2;ratioP2;P2;SDS_P1;SDS_P2;PMS_P1;PMS_P2;Temp;Humidity;BMP_temperature;BMP_pressure;BME280_temperature;BME280_humidity;BME280_pressure;Samples;Min_cycle;Max_cycle;Signal;HPM_P1;HPM_P2
2022/12/11 03:01:18;;;;;;;44.30;19.90;;;;;;;-1.32;82.78;99096.88;100999;1262;110319;31
2022/12/11 03:03:43;;;;;;;43.60;20.60;;;;;;;-1.30;82.84;99097.90;99604;1300;108206;-67
2022/12/11 03:06:10;;;;;;;45.40;21.30;;;;;;;-1.27;82.72;99100.45;99807;1300;137934;-69
2022/12/11 03:08:33;;;;;;;47.40;21.70;;;;;;;-1.25;82.72;99100.28;99123;1295;1003486;-69
2022/12/11 03:10:57;;;;;;;49.80;23.20;;;;;;;-1.25;82.78;99099.10;99763;1295;96566;-70
2022/12/11 03:13:22;;;;;;;52.80;24.60;;;;;;;-1.25;82.61;99101.48;99792;1287;137194;-69
2022/12/11 03:15:55;;;;;;;52.00;23.20;;;;;;;-1.28;82.75;99102.15;99750;1295;107073;-68
2022/12/11 03:18:27;;;;;;;47.90;22.80;;;;;;;-1.34;82.80;99101.32;100514;1301;138632;-69
2022/12/11 03:20:57;;;;;;;46.90;22.80;;;;;;;-1.36;82.77;99100.98;99903;1294;106602;-68
2022/12/11 03:23:29;;;;;;;46.30;22.30;;;;;;;-1.38;82.87;99099.98;99458;1299;271005;-68
2022/12/11 03:25:56;;;;;;;50.70;24.00;;;;;;;-1.38;82.93;99099.81;99764;1295;108935;-68
2022/12/11 03:28:26;;;;;;;49.10;23.50;;;;;;;-1.38;82.96;99099.13;99829;1301;107089;-68
2022/12/11 03:30:52;;;;;;;54.90;23.20;;;;;;;-1.38;83.14;99103.39;99824;1301;138293;-68
2022/12/11 03:33:21;;;;;;;50.50;24.20;;;;;;;-1.37;83.02;99107.98;100059;1294;108364;-68
2022/12/11 03:35:51;;;;;;;45.80;22.30;;;;;;;-1.38;83.08;99107.83;99680;1293;138488;-68
2022/12/11 03:38:20;;;;;;;47.20;22.30;;;;;;;-1.38;83.25;99109.52;99202;1293;1003379;-69
2022/12/11 03:40:49;;;;;;;49.80;21.90;;;;;;;-1.39;83.13;99109.36;100625;1293;106290;-69
2022/12/11 03:43:14;;;;;;;49.00;22.60;;;;;;;-1.39;83.28;99109.02;99782;1291;138282;-68
2022/12/11 03:45:40;;;;;;;51.90;23.90;;;;;;;-1.38;83.07;99111.06;99859;1293;107527;-68
2022/12/11 03:48:06;;;;;;;50.30;22.00;;;;;;;-1.37;83.16;99109.36;99757;1299;138214;-68
2022/12/11 03:50:31;;;;;;;50.80;23.60;;;;;;;-1.39;83.02;99112.08;101279;1291;109211;-69
2022/12/11 03:52:56;;;;;;;46.20;21.10;;;;;;;-1.40;83.19;99111.58;100007;1298;107937;-68
2022/12/11 03:55:22;;;;;;;47.80;21.80;;;;;;;-1.45;82.95;99110.55;99826;1295;138661;-69
2022/12/11 03:57:44;;;;;;;;;;;;;;;-1.49;82.96;99109.02;99925;1290;107465;-68
2022/12/11 04:00:13;;;;;;;44.40;22.10;;;;;;;-1.53;82.92;99112.80;99091;1299;1003478;-68
2022/12/11 04:02:36;;;;;;;43.50;21.00;;;;;;;-1.54;83.15;99109.05;100181;1301;109450;-68
2022/12/11 04:05:00;;;;;;;47.60;21.10;;;;;;;-1.53;83.42;99104.95;99774;1300;107483;-68
2022/12/11 04:07:24;;;;;;;46.60;22.40;;;;;;;-1.51;83.34;99101.88;99734;1299;138089;-68
2022/12/11 04:09:47;;;;;;;47.80;22.10;;;;;;;-1.49;83.44;99095.90;99757;1293;108880;-68
2022/12/11 04:12:11;;;;;;;45.70;21.70;;;;;;;-1.49;83.46;99086.87;99681;1299;139102;-69
2022/12/11 04:24:13;;;;;;;51.90;23.90;;;;;;;-1.46;83.37;99082.42;99804;1295;108082;-69
2022/12/11 04:25:20;;;;;;;47.80;23.00;;;;;;;-1.58;82.75;99077.36;99053;1308;139358;-68
2022/12/11 04:27:50;;;;;;;48.50;23.50;;;;;;;-1.64;82.79;99081.43;99206;1302;109908;-68
2022/12/11 04:30:16;;;;;;;49.00;22.60;;;;;;;-1.71;82.69;99083.17;99103;1308;138291;-68
2022/12/11 04:32:40;;;;;;;53.90;24.40;;;;;;;-1.75;82.94;99080.27;99299;1308;97130;-68
2022/12/11 04:35:07;;;;;;;52.60;23.70;;;;;;;-1.78;83.12;99080.80;99288;1309;107846;-68
2022/12/11 04:37:30;;;;;;;51.10;24.80;;;;;;;-1.79;83.34;99084.71;99341;1292;138817;-68
2022/12/11 04:39:55;;;;;;;47.30;22.40;;;;;;;-1.82;82.98;99081.29;99285;1308;109302;-68
2022/12/11 04:42:18;;;;;;;50.70;22.50;;;;;;;-1.83;83.27;99080.45;99653;1301;138283;-69
2022/12/11 04:44:42;;;;;;;48.10;23.60;;;;;;;-1.81;83.50;99073.63;99419;1308;96961;-68
2022/12/11 04:47:06;;;;;;;43.40;21.80;;;;;;;-1.78;83.33;99074.84;99511;1306;107307;-68
2022/12/11 04:49:29;;;;;;;46.10;21.20;;;;;;;-1.74;83.41;99075.50;99235;1308;138143;-68
2022/12/11 04:51:53;;;;;;;42.00;20.90;;;;;;;-1.71;83.34;99076.02;99581;1299;109959;-68
2022/12/11 04:54:16;;;;;;;43.70;20.50;;;;;;;-1.69;83.20;99073.79;99522;1305;139255;-68
2022/12/11 04:56:40;;;;;;;39.00;19.90;;;;;;;-1.66;82.97;99070.36;99357;1302;96529;-68
2022/12/11 04:59:03;;;;;;;43.60;21.90;;;;;;;-1.64;83.22;99066.77;99508;1312;107744;-68
2022/12/11 05:01:27;;;;;;;43.50;22.80;;;;;;;-1.63;83.18;99064.73;99349;1301;138521;-68
2022/12/11 05:03:51;;;;;;;48.40;23.40;;;;;;;-1.63;83.18;99067.11;99746;1300;109632;-68
2022/12/11 05:06:15;;;;;;;48.90;22.40;;;;;;;-1.64;82.97;99056.04;99958;1299;137491;-68
2022/12/11 05:08:40;;;;;;;47.70;22.90;;;;;;;-1.69;82.86;99050.95;99885;1295;96489;-68
2022/12/11 05:11:07;;;;;;;47.40;24.00;;;;;;;-1.72;83.00;99044.66;99906;1300;107676;-68
2022/12/11 05:13:31;;;;;;;47.00;23.80;;;;;;;-1.73;82.97;99042.95;98902;1296;1015961;-68
2022/12/11 05:15:55;;;;;;;47.30;23.90;;;;;;;-1.74;83.00;99037.17;99643;1305;109569;-68
2022/12/11 05:18:19;;;;;;;46.30;23.90;;;;;;;-1.75;83.23;99032.23;99719;1304;138219;-69
2022/12/11 05:20:42;;;;;;;49.20;24.00;;;;;;;-1.76;83.38;99031.55;99865;1299;96468;-68
2022/12/11 05:23:06;;;;;;;45.50;22.90;;;;;;;-1.77;83.22;99025.93;100038;1300;108103;-68
2022/12/11 05:25:30;;;;;;;51.30;24.70;;;;;;;-1.75;83.46;99020.81;100084;1296;138437;-66
2022/12/11 05:27:53;;;;;;;46.00;23.80;;;;;;;-1.75;83.48;99011.95;99778;1294;112984;-68
2022/12/11 05:30:17;;;;;;;48.70;24.50;;;;;;;-1.75;83.45;99012.63;99732;1296;138441;-67
2022/12/11 05:32:40;;;;;;;49.10;22.80;;;;;;;-1.75;83.75;99009.40;99928;1302;97245;-68
2022/12/11 05:35:05;;;;;;;46.90;23.20;;;;;;;-1.74;83.83;99010.24;99855;1300;108127;-66
2022/12/11 05:37:31;;;;;;;51.00;24.70;;;;;;;-1.74;83.70;99009.90;100459;1302;138898;-68
2022/12/11 05:39:55;;;;;;;48.00;23.80;;;;;;;-1.77;83.52;99004.29;99794;1300;110415;-68
2022/12/11 05:42:19;;;;;;;48.70;23.70;;;;;;;-1.79;83.60;99005.65;99653;1295;138308;-68
2022/12/11 05:44:50;;;;;;;44.00;23.60;;;;;;;-1.81;83.64;99003.44;99862;1299;96630;-68
2022/12/11 05:47:13;;;;;;;46.40;23.30;;;;;;;-1.82;83.88;98996.09;99795;1299;108078;-68
2022/12/11 05:49:37;;;;;;;48.20;24.10;;;;;;;-1.82;83.98;98991.33;99593;1299;138152;-68
2022/12/11 05:52:01;;;;;;;46.30;23.10;;;;;;;-1.83;83.79;98993.05;99789;1295;109716;-69
2022/12/11 05:54:24;;;;;;;46.80;23.60;;;;;;;-1.82;83.67;98991.16;99601;1297;138127;-68
2022/12/11 05:56:50;;;;;;;47.40;23.50;;;;;;;-1.84;83.82;98985.72;99766;1293;97050;-68
2022/12/11 05:59:14;;;;;;;47.30;23.00;;;;;;;-1.89;83.58;98985.73;100020;1296;106921;-69
2022/12/11 06:01:39;;;;;;;45.00;22.90;;;;;;;-1.93;83.85;98983.38;99808;1302;138086;-69
2022/12/11 06:04:04;;;;;;;47.70;24.10;;;;;;;-1.97;83.85;98983.37;99716;1302;109932;-69
2022/12/11 06:06:28;;;;;;;46.80;23.80;;;;;;;-2.01;83.63;98982.52;99445;1302;138696;-69
2022/12/11 06:08:53;;;;;;;45.10;24.10;;;;;;;-2.02;83.91;98986.61;99601;1301;97871;-69
2022/12/11 06:11:17;;;;;;;44.40;22.20;;;;;;;-2.02;84.17;98984.57;99595;1297;107515;-69
2022/12/11 06:13:47;;;;;;;44.00;22.50;;;;;;;-2.05;83.82;98986.62;99740;1294;97739;-69
2022/12/11 06:16:12;;;;;;;46.70;22.70;;;;;;;-2.07;84.03;98986.80;99678;1298;110614;-68
2022/12/11 06:18:37;;;;;;;45.80;22.30;;;;;;;-2.08;84.18;98986.98;99564;1301;138386;-69
2022/12/11 06:21:01;;;;;;;39.80;21.00;;;;;;;-2.14;84.18;98983.92;99693;1302;97841;-69
2022/12/11 06:23:24;;;;;;;40.60;20.90;;;;;;;-2.18;83.99;98988.51;99651;1300;108869;-69
2022/12/11 06:25:48;;;;;;;41.70;21.50;;;;;;;-2.23;84.12;98989.54;99645;1295;97748;-69
2022/12/11 06:28:12;;;;;;;40.20;21.00;;;;;;;-2.27;84.02;98992.10;99727;1293;110235;-69
2022/12/11 06:30:35;;;;;;;39.10;20.20;;;;;;;-2.29;84.40;98996.70;99564;1297;139169;-70
2022/12/11 06:33:02;;;;;;;41.30;20.40;;;;;;;-2.32;84.04;98998.24;99735;1294;97881;-69
2022/12/11 06:35:26;;;;;;;40.60;19.80;;;;;;;-2.37;83.96;98996.19;100003;1301;107361;-69
2022/12/11 06:37:50;;;;;;;36.40;19.40;;;;;;;-2.38;83.94;98991.92;99650;1302;97954;-69
2022/12/11 06:40:13;;;;;;;38.30;20.30;;;;;;;-2.39;84.25;98992.95;99688;1297;111835;-69
2022/12/11 06:42:37;;;;;;;35.50;19.30;;;;;;;-2.39;84.01;98991.42;99589;1298;138356;-68
2022/12/11 06:45:01;;;;;;;39.40;19.20;;;;;;;-2.40;84.25;98993.30;99816;1294;97836;-69
2022/12/11 06:47:26;;;;;;;36.30;19.60;;;;;;;-2.39;84.23;98996.52;99769;1294;107868;-69
2022/12/11 06:49:49;;;;;;;38.00;19.50;;;;;;;-2.40;84.22;98997.39;99742;1294;98279;-69
2022/12/11 06:52:13;;;;;;;37.60;19.80;;;;;;;-2.41;84.14;98997.73;99795;1293;110949;-69
2022/12/11 06:54:41;;;;;;;35.60;18.70;;;;;;;-2.39;84.42;98999.09;99685;1287;138389;-69
2022/12/11 06:57:05;;;;;;;33.80;18.10;;;;;;;-2.33;84.81;99003.17;99787;1301;97730;-69
2022/12/11 06:59:28;;;;;;;35.50;18.40;;;;;;;-2.27;84.72;99006.06;98962;1294;1003089;-68
2022/12/11 07:01:52;;;;;;;32.20;18.00;;;;;;;-2.22;84.53;99002.65;99796;1293;97739;-69
2022/12/11 07:04:16;;;;;;;36.60;20.60;;;;;;;-2.13;84.36;99000.61;99868;1301;111397;-69
2022/12/11 07:06:39;;;;;;;34.00;19.20;;;;;;;-2.10;84.35;98995.49;99661;1293;137641;-69
2022/12/11 07:09:05;;;;;;;36.00;19.90;;;;;;;-2.06;84.19;98996.85;99775;1293;97838;-69
2022/12/11 07:11:28;;;;;;;37.50;19.60;;;;;;;-2.05;84.25;98993.60;99707;1293;137748;-69
2022/12/11 07:13:52;;;;;;;35.70;18.80;;;;;;;-2.06;84.00;98991.90;99761;1293;97849;-69
2022/12/11 07:16:17;;;;;;;35.00;18.90;;;;;;;-2.09;83.73;98991.91;99744;1288;110945;-69
2022/12/11 07:18:42;;;;;;;38.00;19.70;;;;;;;-2.11;83.56;98996.35;99704;1299;138229;-69
2022/12/11 07:21:08;;;;;;;29.40;16.10;;;;;;;-2.14;83.20;98992.94;99793;1287;98461;-69
2022/12/11 07:23:33;;;;;;;33.00;17.60;;;;;;;-2.22;83.16;98991.75;98930;1295;1002971;-69
2022/12/11 07:25:56;;;;;;;28.20;15.40;;;;;;;-2.28;83.11;98989.21;99724;1299;97845;-69
2022/12/11 07:28:20;;;;;;;32.00;17.90;;;;;;;-2.34;82.76;98986.15;99781;1293;110259;-69
2022/12/11 07:30:43;;;;;;;31.80;17.40;;;;;;;-2.40;82.70;98984.45;100416;1295;138297;-70
2022/12/11 07:33:07;;;;;;;32.20;16.90;;;;;;;-2.44;83.05;98979.34;100457;1294;97845;-69
2022/12/11 07:35:33;;;;;;;27.90;16.60;;;;;;;-2.45;82.98;98972.38;99654;1294;138591;-69
2022/12/11 07:37:58;;;;;;;23.70;12.70;;;;;;;-2.49;82.78;98971.19;99729;1301;97838;-69
2022/12/11 07:40:21;;;;;;;27.30;16.30;;;;;;;-2.52;83.09;98965.55;99746;1294;110984;-69
2022/12/11 07:42:45;;;;;;;30.70;16.00;;;;;;;-2.53;83.01;98964.18;99636;1294;138509;-69
2022/12/11 07:45:10;;;;;;;27.30;15.60;;;;;;;-2.53;83.09;98964.69;99758;1294;97847;-69
2022/12/11 07:47:35;;;;;;;28.80;16.00;;;;;;;-2.51;83.33;98959.79;99981;1301;138247;-69
2022/12/11 07:49:59;;;;;;;29.00;15.80;;;;;;;-2.49;83.47;98962.17;99753;1298;97544;-69
2022/12/11 07:52:22;;;;;;;30.30;16.50;;;;;;;-2.46;83.35;98957.90;99772;1300;111163;-69
2022/12/11 07:54:46;;;;;;;28.40;15.70;;;;;;;-2.44;83.44;98952.29;99766;1294;139534;-69
2022/12/11 07:57:10;;;;;;;27.70;16.20;;;;;;;-2.42;83.51;98952.61;99738;1285;96636;-69
2022/12/11 07:59:37;;;;;;;27.40;15.00;;;;;;;-2.39;83.07;98948.86;99677;1300;138246;-68
2022/12/11 08:02:00;;;;;;;24.90;14.40;;;;;;;-2.39;83.07;98955.00;99807;1300;97849;-69
2022/12/11 08:04:24;;;;;;;27.10;14.90;;;;;;;-2.38;82.93;98956.86;99798;1300;110382;-69
2022/12/11 08:06:48;;;;;;;26.50;14.10;;;;;;;-2.39;82.52;98955.00;99660;1294;140208;-69
2022/12/11 08:09:13;;;;;;;25.10;14.00;;;;;;;-2.44;82.68;98955.69;99850;1294;97851;-69
2022/12/11 08:11:44;;;;;;;24.90;13.80;;;;;;;-2.49;82.13;98959.61;99652;1301;138418;-67
2022/12/11 08:14:08;;;;;;;24.20;13.50;;;;;;;-2.52;82.13;98958.91;99852;1301;97722;-69
2022/12/11 08:16:32;;;;;;;22.90;13.80;;;;;;;-2.54;82.11;98957.55;99781;1299;111683;-69
2022/12/11 08:18:57;;;;;;;21.80;13.40;;;;;;;-2.57;82.07;98952.29;99600;1294;138641;-68
2022/12/11 08:21:23;;;;;;;29.00;14.60;;;;;;;-2.60;82.15;98948.89;99794;1295;97937;-68
2022/12/11 08:23:47;;;;;;;27.00;14.30;;;;;;;-2.63;82.37;98951.61;99621;1297;138402;-68
2022/12/11 08:26:13;;;;;;;26.30;14.80;;;;;;;-2.64;82.29;98949.06;99843;1287;97837;-68
2022/12/11 08:28:37;;;;;;;27.40;15.10;;;;;;;-2.66;82.27;98947.37;100160;1294;112603;-68
2022/12/11 08:31:04;;;;;;;26.00;14.00;;;;;;;-2.71;82.46;98941.39;99697;1287;139349;-68
2022/12/11 08:33:27;;;;;;;27.90;15.00;;;;;;;-2.71;82.61;98933.91;99948;1293;97873;-68
2022/12/11 08:35:51;;;;;;;25.30;14.50;;;;;;;-2.75;82.31;98934.08;99707;1296;138269;-69
2022/12/11 08:38:15;;;;;;;25.00;14.10;;;;;;;-2.81;82.56;98932.05;99914;1295;97818;-68
2022/12/11 08:40:45;;;;;;;27.10;14.50;;;;;;;-2.79;82.75;98936.13;99792;1294;111796;-68
2022/12/11 08:43:08;;;;;;;28.10;15.30;;;;;;;-2.76;82.49;98934.77;99783;1295;138296;-69
2022/12/11 08:45:32;;;;;;;27.90;15.20;;;;;;;-2.76;82.71;98931.36;100050;1293;98321;-68
2022/12/11 08:47:58;;;;;;;24.30;14.20;;;;;;;-2.76;82.50;98927.95;99911;1298;138632;-68
2022/12/11 08:50:21;;;;;;;30.20;16.00;;;;;;;-2.74;82.90;98931.70;99851;1301;97709;-69
2022/12/11 08:52:45;;;;;;;27.90;15.20;;;;;;;-2.74;82.75;98924.20;99865;1297;111886;-69
2022/12/11 08:55:09;;;;;;;31.20;16.40;;;;;;;-2.75;82.76;98927.27;99727;1287;138419;-69
2022/12/11 08:57:33;;;;;;;34.00;17.80;;;;;;;-2.75;82.68;98930.17;100039;1299;97705;-69
2022/12/11 08:59:57;;;;;;;34.20;17.40;;;;;;;-2.77;82.65;98920.47;99755;1287;138639;-68
2022/12/11 09:02:20;;;;;;;29.50;15.30;;;;;;;-2.83;82.38;98919.13;99765;1293;97805;-69
2022/12/11 09:04:44;;;;;;;31.30;16.40;;;;;;;-2.89;82.63;98920.98;99758;1294;110329;-69
2022/12/11 09:07:07;;;;;;;29.50;15.80;;;;;;;-2.93;82.75;98919.27;99634;1294;138554;-69
2022/12/11 09:09:31;;;;;;;26.80;15.50;;;;;;;-2.98;82.69;98914.17;99728;1294;98392;-69
2022/12/11 09:11:55;;;;;;;30.20;16.30;;;;;;;-3.02;82.59;98909.42;99646;1297;138631;-69
2022/12/11 09:14:18;;;;;;;28.70;15.60;;;;;;;-3.04;82.93;98900.23;99722;1294;97718;-68
2022/12/11 09:16:42;;;;;;;27.30;14.40;;;;;;;-3.05;82.88;98898.20;99780;1294;111263;-69
2022/12/11 09:19:08;;;;;;;28.40;15.10;;;;;;;-3.06;82.80;98902.08;99602;1309;139284;-68
2022/12/11 09:21:31;;;;;;;24.80;14.20;;;;;;;-3.07;82.73;98898.17;99743;1300;97848;-68
2022/12/11 09:23:57;;;;;;;27.90;14.20;;;;;;;-3.07;82.54;98895.79;99662;1294;138221;-68
2022/12/11 09:26:21;;;;;;;27.80;15.00;;;;;;;-3.05;83.07;98889.02;99723;1293;98227;-68
2022/12/11 09:28:45;;;;;;;25.90;13.70;;;;;;;-3.02;83.15;98881.37;99805;1293;110375;-68
2022/12/11 09:31:11;;;;;;;29.00;14.50;;;;;;;-2.99;82.94;98877.79;99695;1293;138224;-68
2022/12/11 09:33:34;;;;;;;25.90;13.60;;;;;;;-2.95;83.08;98881.52;99777;1293;97942;-68
2022/12/11 09:35:59;;;;;;;25.60;13.70;;;;;;;-2.91;83.10;98879.30;99706;1293;138688;-68
2022/12/11 09:38:22;;;;;;;26.90;15.20;;;;;;;-2.87;83.04;98869.28;99708;1295;97851;-68
2022/12/11 09:40:46;;;;;;;26.00;13.70;;;;;;;-2.84;82.98;98867.25;99778;1301;111139;-68
2022/12/11 09:43:19;;;;;;;30.30;15.70;;;;;;;-2.83;82.75;98860.27;99711;1298;138599;-68
2022/12/11 09:45:43;;;;;;;25.00;13.70;;;;;;;-2.83;82.59;98855.33;99800;1300;97772;-68
2022/12/11 09:48:09;;;;;;;25.80;14.20;;;;;;;-2.87;82.72;98852.10;99715;1294;138164;-68
2022/12/11 09:50:34;;;;;;;26.80;14.60;;;;;;;-2.89;82.77;98851.58;99790;1294;97832;-69
2022/12/11 09:53:05;;;;;;;30.40;15.30;;;;;;;-2.88;82.75;98847.67;99743;1293;110853;-67
2022/12/11 09:55:36;;;;;;;25.00;14.40;;;;;;;-2.85;82.84;98846.84;100123;1293;138161;-70
2022/12/11 09:58:08;;;;;;;27.00;14.10;;;;;;;-2.85;83.02;98839.02;99785;1301;97848;-68
2022/12/11 10:00:39;;;;;;;25.70;14.70;;;;;;;-2.85;82.92;98836.29;99690;1293;138716;-69
2022/12/11 10:03:34;;;;;;;28.30;14.80;;;;;;;-2.82;83.11;98834.76;99015;1295;1003011;-68
2022/12/11 10:06:06;;;;;;;27.40;14.30;;;;;;;-2.83;82.79;98837.48;99615;1300;138772;-68
2022/12/11 10:08:36;;;;;;;28.30;15.10;;;;;;;-2.82;82.55;98837.65;99758;1301;107545;-69
2022/12/11 10:11:16;;;;;;;30.40;16.20;;;;;;;-2.80;83.01;98826.58;99775;1293;97821;-69
2022/12/11 10:13:49;;;;;;;26.70;14.40;;;;;;;-2.78;82.71;98826.23;99698;1294;137898;-68
2022/12/11 10:16:19;;;;;;;28.20;14.10;;;;;;;-2.76;82.92;98822.14;99714;1293;97838;-68
2022/12/11 10:18:43;;;;;;;29.10;15.30;;;;;;;-2.72;82.80;98822.13;99706;1293;138155;-68
2022/12/11 10:21:08;;;;;;;26.80;14.90;;;;;;;-2.70;82.91;98821.95;99730;1294;107482;-68
2022/12/11 10:23:38;;;;;;;25.90;14.60;;;;;;;-2.68;82.62;98816.70;99675;1300;138398;-68
2022/12/11 10:26:06;;;;;;;25.50;14.60;;;;;;;-2.65;82.87;98811.08;99764;1287;106970;-68
2022/12/11 10:28:29;;;;;;;31.60;16.60;;;;;;;-2.62;83.06;98808.86;99858;1301;97844;-68
2022/12/11 10:31:01;;;;;;;28.90;15.30;;;;;;;-2.59;82.83;98801.02;99593;1283;138065;-69
2022/12/11 10:33:34;;;;;;;26.50;15.50;;;;;;;-2.61;82.59;98804.25;99745;1294;107198;-68
2022/12/11 10:35:58;;;;;;;25.20;14.80;;;;;;;-2.63;82.58;98803.92;99672;1299;140043;-68
2022/12/11 10:38:27;;;;;;;24.70;14.60;;;;;;;-2.64;82.42;98798.14;99750;1293;107582;-68
2022/12/11 10:40:54;;;;;;;27.60;15.40;;;;;;;-2.64;82.57;98797.13;99977;1299;97856;-68
2022/12/11 10:43:18;;;;;;;27.20;14.70;;;;;;;-2.65;82.83;98795.77;99698;1301;138109;-68
2022/12/11 10:45:51;;;;;;;26.10;14.40;;;;;;;-2.63;82.88;98792.19;99727;1293;107742;-69
2022/12/11 10:48:16;;;;;;;28.00;14.00;;;;;;;-2.63;82.81;98784.88;99709;1293;139552;-68
2022/12/11 10:50:57;;;;;;;26.60;15.20;;;;;;;-2.59;82.73;98783.48;99791;1300;107534;-68
2022/12/11 10:53:21;;;;;;;27.70;15.10;;;;;;;-2.59;82.44;98775.83;99752;1301;97709;-68
2022/12/11 10:55:47;;;;;;;23.30;13.70;;;;;;;-2.62;82.54;98762.92;99644;1293;137906;-69
2022/12/11 10:58:18;;;;;;;25.20;14.20;;;;;;;-2.65;82.45;98758.84;99737;1288;106402;-69
2022/12/11 11:00:42;;;;;;;24.60;13.40;;;;;;;-2.66;82.52;98757.49;99710;1293;138359;-70
2022/12/11 11:03:19;;;;;;;24.30;14.00;;;;;;;-2.65;82.74;98749.48;99772;1293;107262;-70
2022/12/11 11:05:42;;;;;;;24.00;13.60;;;;;;;-2.65;82.44;98742.69;99656;1287;138509;-69
2022/12/11 11:08:18;;;;;;;24.70;13.80;;;;;;;-2.70;82.37;98740.30;99810;1281;111562;-70
2022/12/11 11:10:52;;;;;;;25.50;14.30;;;;;;;-2.72;82.45;98737.41;99739;1294;107202;-69
2022/12/11 11:13:16;;;;;;;23.10;13.30;;;;;;;-2.73;82.23;98731.63;100117;1293;138424;-70
2022/12/11 11:15:39;;;;;;;23.10;12.60;;;;;;;-2.78;82.42;98734.55;99762;1294;108623;-69
2022/12/11 11:18:16;;;;;;;26.50;13.30;;;;;;;-2.77;82.53;98730.80;99652;1285;138487;-69
2022/12/11 11:20:47;;;;;;;23.00;12.60;;;;;;;-2.78;82.50;98726.55;99761;1299;110810;-69
2022/12/11 11:23:14;;;;;;;21.00;12.50;;;;;;;-2.80;82.72;98727.58;99732;1288;106143;-69
2022/12/11 11:25:37;;;;;;;23.60;12.70;;;;;;;-2.77;82.75;98723.99;99733;1288;140143;-69
2022/12/11 11:28:04;;;;;;;22.60;13.40;;;;;;;-2.71;83.07;98723.13;99783;1296;107866;-69
2022/12/11 11:30:30;;;;;;;26.00;13.10;;;;;;;-2.67;82.88;98721.42;99689;1294;138804;-69
2022/12/11 11:32:56;;;;;;;23.50;12.90;;;;;;;-2.61;83.17;98719.02;98999;1287;1003235;-69
2022/12/11 11:35:23;;;;;;;19.90;12.00;;;;;;;-2.54;83.09;98719.30;99700;1301;107907;-69
2022/12/11 11:37:57;;;;;;;28.20;14.70;;;;;;;-2.49;82.85;98718.29;99924;1294;138565;-69
2022/12/11 11:40:26;;;;;;;24.30;13.20;;;;;;;-2.46;82.67;98713.00;99714;1293;106819;-70
2022/12/11 11:43:02;;;;;;;23.40;13.40;;;;;;;-2.47;82.61;98705.00;99674;1294;137606;-70
2022/12/11 11:45:31;;;;;;;25.10;14.80;;;;;;;-2.48;82.74;98706.02;99784;1287;110385;-69
2022/12/11 11:48:02;;;;;;;28.70;15.00;;;;;;;-2.47;82.74;98702.79;98949;1294;1003372;-69
2022/12/11 11:50:35;;;;;;;25.20;14.30;;;;;;;-2.46;82.73;98701.94;99782;1294;98245;-69
2022/12/11 11:53:05;;;;;;;28.70;14.70;;;;;;;-2.48;82.72;98701.27;99847;1293;106846;-69
2022/12/11 11:55:41;;;;;;;23.70;13.30;;;;;;;-2.48;82.33;98692.75;99699;1293;139251;-69
2022/12/11 12:02:15;;;;;;;24.40;13.30;;;;;;;-2.42;82.53;98694.92;100187;1280;108621;-70
2022/12/11 12:04:39;;;;;;;25.80;13.60;;;;;;;-2.42;82.28;98695.95;100066;1293;97829;-70
2022/12/11 12:07:27;;;;;;;23.90;12.90;;;;;;;-2.42;82.55;98698.67;99928;1293;138377;-69
2022/12/11 12:09:56;;;;;;;20.60;12.20;;;;;;;-2.37;82.71;98697.45;99979;1291;97746;-69
2022/12/11 12:12:32;;;;;;;21.20;13.10;;;;;;;-2.35;82.15;98695.39;100160;1297;138330;-68
2022/12/11 12:15:09;;;;;;;22.40;12.80;;;;;;;-2.37;81.93;98698.47;99294;1299;1002885;-68
2022/12/11 12:17:47;;;;;;;24.30;13.50;;;;;;;-2.37;82.39;98698.48;99895;1292;138831;-69
2022/12/11 12:20:27;;;;;;;28.00;14.30;;;;;;;-2.37;82.08;98692.67;100046;1292;106466;-69
2022/12/11 12:23:02;;;;;;;23.40;13.50;;;;;;;-2.40;82.08;98693.89;100004;1293;97817;-69
2022/12/11 12:25:32;;;;;;;24.60;13.90;;;;;;;-2.43;81.80;98691.54;99912;1292;137696;-69
2022/12/11 12:28:05;;;;;;;24.40;14.60;;;;;;;-2.45;82.09;98691.03;100014;1294;107031;-69
2022/12/11 12:30:35;;;;;;;23.70;14.10;;;;;;;-2.47;81.83;98686.45;99965;1294;138509;-70
2022/12/11 12:33:13;;;;;;;24.50;13.20;;;;;;;-2.54;81.71;98686.98;100023;1287;108129;-70
2022/12/11 12:35:41;;;;;;;24.60;13.30;;;;;;;-2.59;81.69;98685.65;99158;1289;1003553;-69
2022/12/11 12:38:13;;;;;;;21.80;13.20;;;;;;;-2.62;81.72;98685.67;99957;1291;110711;-69
2022/12/11 12:40:46;;;;;;;24.00;13.80;;;;;;;-2.62;82.09;98679.03;100054;1291;107511;-69
2022/12/11 12:43:39;;;;;;;23.50;13.20;;;;;;;-2.58;81.80;98675.09;99959;1297;138510;-69
2022/12/11 12:46:14;;;;;;;24.90;12.70;;;;;;;-2.62;81.70;98670.86;100046;1294;107692;-68
2022/12/11 12:48:38;;;;;;;22.10;12.30;;;;;;;-2.62;81.74;98665.42;100082;1281;138527;-69
2022/12/11 12:51:03;;;;;;;21.00;12.20;;;;;;;-2.63;81.80;98664.23;100484;1285;110698;-69
2022/12/11 12:53:32;;;;;;;26.00;12.70;;;;;;;-2.65;81.41;98660.85;100115;1294;106804;-68
2022/12/11 12:55:58;;;;;;;21.60;12.90;;;;;;;-2.70;81.39;98653.04;100264;1299;97855;-69
2022/12/11 12:58:28;;;;;;;19.60;11.80;;;;;;;-2.80;81.17;98655.80;100140;1291;107928;-68
2022/12/11 13:00:51;;;;;;;24.40;12.70;;;;;;;-2.88;81.02;98655.83;99939;1291;138526;-68
2022/12/11 13:03:19;;;;;;;22.20;13.40;;;;;;;-2.96;81.66;98660.97;99828;1294;110900;-68
2022/12/11 13:05:45;;;;;;;22.70;13.40;;;;;;;-3.04;81.53;98663.89;99806;1294;138436;-69
2022/12/11 13:08:10;;;;;;;23.90;13.10;;;;;;;-3.06;82.11;98663.54;99874;1293;97830;-68
2022/12/11 13:10:35;;;;;;;22.10;13.10;;;;;;;-3.08;82.10;98659.63;99895;1294;106582;-68
2022/12/11 13:13:01;;;;;;;24.50;14.10;;;;;;;-3.09;82.46;98657.42;99757;1294;138839;-69
2022/12/11 13:15:39;;;;;;;26.00;14.40;;;;;;;-3.12;82.25;98659.14;99823;1294;112191;-67
2022/12/11 13:18:06;;;;;;;24.10;13.90;;;;;;;-3.13;82.50;98659.32;99752;1295;138419;-68
2022/12/11 13:20:31;;;;;;;23.30;14.10;;;;;;;-3.14;82.67;98660.51;99882;1301;97758;-68
2022/12/11 13:23:09;;;;;;;26.70;14.80;;;;;;;-3.15;82.69;98658.30;99940;1285;108270;-69
2022/12/11 13:25:46;;;;;;;27.20;15.80;;;;;;;-3.16;82.89;98658.30;99806;1301;138281;-69
2022/12/11 13:28:27;;;;;;;26.90;14.60;;;;;;;-3.12;82.83;98657.27;99939;1298;112477;-69
2022/12/11 13:31:06;;;;;;;28.00;14.70;;;;;;;-3.09;83.04;98664.23;99818;1293;138392;-70
2022/12/11 13:33:31;;;;;;;26.40;14.70;;;;;;;-3.05;83.21;98661.34;99899;1301;97725;-70
2022/12/11 13:36:17;;;;;;;23.70;15.00;;;;;;;-3.03;83.10;98662.54;100063;1293;138685;-70
2022/12/11 13:38:51;;;;;;;24.10;14.20;;;;;;;-3.02;82.83;98660.83;99855;1294;97823;-69
2022/12/11 13:41:14;;;;;;;22.40;13.00;;;;;;;-3.01;82.77;98658.95;99908;1285;111463;-70
2022/12/11 13:43:40;;;;;;;20.00;12.80;;;;;;;-3.02;82.84;98664.23;99719;1285;138215;-69
2022/12/11 13:46:04;;;;;;;;;;;;;;;-3.01;82.72;98664.05;100094;1293;97717;-69
2022/12/11 13:48:32;;;;;;;21.10;13.10;;;;;;;-3.03;82.54;98662.02;99807;1293;124502;-69
2022/12/11 13:50:58;;;;;;;22.30;13.30;;;;;;;-3.03;82.52;98658.29;99855;1293;97840;-69
2022/12/11 13:53:22;;;;;;;20.20;13.00;;;;;;;-3.02;82.48;98652.84;99861;1293;110222;-69
2022/12/11 13:55:54;;;;;;;22.20;12.80;;;;;;;-2.99;82.69;98654.69;99741;1294;138283;-69
2022/12/11 13:58:20;;;;;;;23.30;13.50;;;;;;;-2.96;82.39;98655.02;99852;1291;98502;-69
2022/12/11 14:00:56;;;;;;;21.70;13.50;;;;;;;-2.97;82.44;98658.42;99818;1297;137812;-69
2022/12/11 14:03:20;;;;;;;19.90;12.70;;;;;;;-3.00;82.72;98655.70;100041;1294;98489;-69
2022/12/11 14:05:44;;;;;;;21.20;12.80;;;;;;;-2.99;82.47;98656.22;99774;1287;137709;-69
2022/12/11 14:08:09;;;;;;;19.90;12.50;;;;;;;-3.00;82.44;98655.38;99904;1293;107947;-70
2022/12/11 14:10:33;;;;;;;21.60;12.70;;;;;;;-3.03;82.32;98652.84;100111;1300;97694;-69
2022/12/11 14:13:01;;;;;;;23.40;13.10;;;;;;;-3.05;82.53;98655.21;99901;1293;139225;-70
2022/12/11 14:15:27;;;;;;;21.90;13.00;;;;;;;-3.07;82.22;98655.89;99860;1294;97917;-69
2022/12/11 14:17:51;;;;;;;21.70;13.10;;;;;;;-3.09;82.58;98656.75;99921;1294;138246;-70
2022/12/11 14:20:20;;;;;;;21.50;13.10;;;;;;;-3.08;82.46;98653.52;100041;1300;107158;-69